Time,TemperatureF,DewpointF,PressureIn,WindDirection,WindDirectionDegrees,WindSpeedMPH,WindSpeedGustMPH,Humidity,HourlyPrecipIn,Conditions,Clouds,dailyrainin,SolarRadiationWatts/m^2,SoftwareType,DateUTC
2013-05-07 00:02:00,63.0,28.0,29.98,NNW,341,2.0,4.0,25,-99.99,,,-99.99,0.000000,,2013-05-07 06:02:00,
2013-05-07 00:12:00,63.0,28.0,29.98,North,0,0.0,0.0,26,-99.99,,,-99.99,0.000000,,2013-05-07 06:12:00,
2013-05-07 00:22:00,63.0,28.0,29.98,North,0,0.0,0.0,26,-99.99,,,-99.99,0.000000,,2013-05-07 06:22:00,
2013-05-07 00:32:00,62.0,27.0,29.98,NNW,341,1.0,3.0,26,-99.99,,,-99.99,0.000000,,2013-05-07 06:32:00,
2013-05-07 00:42:00,63.0,28.0,29.99,NNW,339,1.0,3.0,26,-99.99,,,-99.99,0.000000,,2013-05-07 06:42:00,
2013-05-07 00:52:00,63.0,28.0,29.99,NNW,339,1.0,3.0,26,-99.99,,,-99.99,0.000000,,2013-05-07 06:52:00,
2013-05-07 01:02:00,64.0,29.0,29.99,WSW,250,3.0,6.0,26,-99.99,,,-99.99,0.000000,,2013-05-07 07:02:00,
2013-05-07 01:11:00,65.0,29.0,29.99,SW,219,3.0,5.0,26,-99.99,,,-99.99,0.000000,,2013-05-07 07:11:00,
2013-05-07 01:22:00,65.0,29.0,29.99,SW,219,3.0,5.0,26,-99.99,,,-99.99,0.000000,,2013-05-07 07:22:00,
2013-05-07 01:31:00,63.0,28.0,29.99,South,180,6.0,9.0,26,-99.99,,,-99.99,0.000000,,2013-05-07 07:31:00,
2013-05-07 01:42:00,62.0,28.0,29.99,South,171,8.0,10.0,27,-99.99,,,-99.99,0.000000,,2013-05-07 07:42:00,
2013-05-07 01:52:00,62.0,28.0,29.99,South,171,8.0,10.0,27,-99.99,,,-99.99,0.000000,,2013-05-07 07:52:00,
2013-05-07 02:02:00,62.0,27.0,29.99,South,182,8.0,12.0,26,-99.99,,,-99.99,0.000000,,2013-05-07 08:02:00,
2013-05-07 02:11:00,59.0,26.0,29.99,SSE,156,5.0,7.0,28,-99.99,,,-99.99,0.000000,,2013-05-07 08:11:00,
2013-05-07 02:21:00,59.0,26.0,29.99,SSE,156,5.0,7.0,28,-99.99,,,-99.99,0.000000,,2013-05-07 08:21:00,
2013-05-07 02:31:00,56.0,25.0,29.99,SE,134,4.0,8.0,29,-99.99,,,-99.99,0.000000,,2013-05-07 08:31:00,
2013-05-07 02:42:00,55.0,25.0,29.99,SE,129,5.0,7.0,30,-99.99,,,-99.99,0.000000,,2013-05-07 08:42:00,
2013-05-07 02:52:00,55.0,25.0,29.99,SE,129,5.0,7.0,30,-99.99,,,-99.99,0.000000,,2013-05-07 08:52:00,
2013-05-07 03:01:00,56.0,26.0,29.98,SE,138,7.0,11.0,30,-99.99,,,-99.99,0.000000,,2013-05-07 09:01:00,
2013-05-07 03:11:00,56.0,26.0,29.98,SSE,151,10.0,12.0,30,-99.99,,,-99.99,0.000000,,2013-05-07 09:11:00,
2013-05-07 03:22:00,56.0,26.0,29.98,SSE,151,10.0,12.0,30,-99.99,,,-99.99,0.000000,,2013-05-07 09:22:00,
2013-05-07 03:33:00,57.0,26.0,29.98,South,173,2.0,6.0,30,-99.99,,,-99.99,0.000000,,2013-05-07 09:33:00,
2013-05-07 03:42:00,57.0,27.0,29.98,SSW,195,2.0,5.0,30,-99.99,,,-99.99,0.000000,,2013-05-07 09:42:00,
2013-05-07 03:52:00,57.0,27.0,29.98,SSW,195,2.0,5.0,30,-99.99,,,-99.99,0.000000,,2013-05-07 09:52:00,
2013-05-07 04:03:00,59.0,27.0,29.97,South,186,6.0,10.0,28,-99.99,,,-99.99,0.000000,,2013-05-07 10:03:00,
2013-05-07 04:12:00,59.0,27.0,29.97,SSW,193,6.0,9.0,28,-99.99,,,-99.99,0.000000,,2013-05-07 10:12:00,
2013-05-07 04:23:00,59.0,27.0,29.97,SSW,193,6.0,9.0,28,-99.99,,,-99.99,0.000000,,2013-05-07 10:23:00,
2013-05-07 04:32:00,58.0,26.0,29.97,South,190,8.0,10.0,29,-99.99,,,-99.99,0.000000,,2013-05-07 10:32:00,
2013-05-07 04:42:00,58.0,27.0,29.98,South,182,7.0,10.0,29,-99.99,,,-99.99,0.000000,,2013-05-07 10:42:00,
2013-05-07 04:52:00,58.0,27.0,29.98,South,182,7.0,10.0,29,-99.99,,,-99.99,0.000000,,2013-05-07 10:52:00,
2013-05-07 05:02:00,60.0,27.0,29.97,South,176,8.0,10.0,28,-99.99,,,-99.99,0.000000,,2013-05-07 11:02:00,
2013-05-07 05:12:00,59.0,27.0,29.98,South,169,8.0,11.0,28,-99.99,,,-99.99,0.000000,,2013-05-07 11:12:00,
2013-05-07 05:22:00,59.0,27.0,29.98,South,169,8.0,11.0,28,-99.99,,,-99.99,0.000000,,2013-05-07 11:22:00,
2013-05-07 05:32:00,61.0,27.0,29.98,South,187,6.0,10.0,28,-99.99,,,-99.99,0.000000,,2013-05-07 11:32:00,
2013-05-07 05:42:00,61.0,28.0,29.98,SW,225,6.0,10.0,28,-99.99,,,-99.99,0.000000,,2013-05-07 11:42:00,
2013-05-07 05:52:00,61.0,28.0,29.98,SW,225,6.0,10.0,28,-99.99,,,-99.99,0.000000,,2013-05-07 11:52:00,
2013-05-07 06:02:00,59.0,28.0,29.99,WNW,289,7.0,11.0,30,-99.99,,,-99.99,0.000000,,2013-05-07 12:02:00,
2013-05-07 06:11:00,64.0,31.0,29.99,West,273,9.0,20.0,28,-99.99,,,-99.99,0.000000,,2013-05-07 12:11:00,
2013-05-07 06:21:00,64.0,31.0,29.99,West,273,9.0,20.0,28,-99.99,,,-99.99,0.000000,,2013-05-07 12:21:00,
2013-05-07 06:32:00,69.0,31.0,29.99,West,260,9.0,20.0,24,-99.99,,,-99.99,0.000000,,2013-05-07 12:32:00,
2013-05-07 06:42:00,67.0,31.0,29.99,NW,313,3.0,12.0,25,-99.99,,,-99.99,2.090000,,2013-05-07 12:42:00,
2013-05-07 06:52:00,67.0,31.0,29.99,NW,313,3.0,12.0,25,-99.99,,,-99.99,2.090000,,2013-05-07 12:52:00,
2013-05-07 07:02:00,67.0,31.0,29.99,NW,313,3.0,12.0,25,-99.99,,,-99.99,2.090000,,2013-05-07 13:02:00,
2013-05-07 07:11:00,64.0,30.0,30.00,SE,125,3.0,6.0,27,-99.99,,,-99.99,42.540001,,2013-05-07 13:11:00,
2013-05-07 07:21:00,64.0,30.0,30.00,SE,125,3.0,6.0,27,-99.99,,,-99.99,42.540001,,2013-05-07 13:21:00,
2013-05-07 07:32:00,66.0,30.0,30.00,SE,131,1.0,5.0,26,-99.99,,,-99.99,94.839996,,2013-05-07 13:32:00,
2013-05-07 07:42:00,66.0,30.0,30.00,SE,131,1.0,5.0,26,-99.99,,,-99.99,94.839996,,2013-05-07 13:42:00,
2013-05-07 07:52:00,66.0,30.0,30.00,SE,131,1.0,5.0,26,-99.99,,,-99.99,94.839996,,2013-05-07 13:52:00,
2013-05-07 08:02:00,68.0,31.0,30.01,ESE,122,3.0,7.0,25,-99.99,,,-99.99,194.559998,,2013-05-07 14:02:00,
2013-05-07 08:11:00,69.0,31.0,30.02,East,98,4.0,7.0,24,-99.99,,,-99.99,242.669998,,2013-05-07 14:11:00,
2013-05-07 08:21:00,69.0,31.0,30.02,East,98,4.0,7.0,24,-99.99,,,-99.99,242.669998,,2013-05-07 14:21:00,
2013-05-07 08:32:00,70.0,31.0,30.02,ESE,107,6.0,10.0,24,-99.99,,,-99.99,292.880005,,2013-05-07 14:32:00,
2013-05-07 08:42:00,71.0,32.0,30.03,SE,130,4.0,9.0,23,-99.99,,,-99.99,343.089996,,2013-05-07 14:42:00,
2013-05-07 08:52:00,71.0,32.0,30.03,SE,130,4.0,9.0,23,-99.99,,,-99.99,343.089996,,2013-05-07 14:52:00,
2013-05-07 09:01:00,71.0,31.0,30.03,SSW,195,10.0,17.0,23,-99.99,,,-99.99,394.690002,,2013-05-07 15:01:00,
2013-05-07 09:12:00,71.0,32.0,30.03,SSW,205,9.0,18.0,23,-99.99,,,-99.99,444.899994,,2013-05-07 15:12:00,
2013-05-07 09:21:00,71.0,32.0,30.03,SSW,205,9.0,18.0,23,-99.99,,,-99.99,444.899994,,2013-05-07 15:21:00,
2013-05-07 09:33:00,72.0,32.0,30.03,SSE,164,5.0,12.0,22,-99.99,,,-99.99,493.709991,,2013-05-07 15:33:00,
2013-05-07 09:42:00,73.0,32.0,30.03,SSE,163,4.0,9.0,21,-99.99,,,-99.99,539.739990,,2013-05-07 15:42:00,
2013-05-07 09:53:00,73.0,32.0,30.03,SSE,163,4.0,9.0,21,-99.99,,,-99.99,539.739990,,2013-05-07 15:53:00,
2013-05-07 10:03:00,73.0,32.0,30.03,SSE,163,4.0,9.0,21,-99.99,,,-99.99,539.739990,,2013-05-07 16:03:00,
2013-05-07 10:12:00,73.0,32.0,30.03,SSE,163,4.0,9.0,21,-99.99,,,-99.99,539.739990,,2013-05-07 16:12:00,
2013-05-07 10:42:00,74.0,31.0,30.04,SSW,201,6.0,14.0,21,-99.99,,,-99.99,730.809998,,2013-05-07 16:42:00,
2013-05-07 10:52:00,74.0,31.0,30.04,SSW,201,6.0,14.0,21,-99.99,,,-99.99,730.809998,,2013-05-07 16:52:00,
2013-05-07 11:01:00,74.0,31.0,30.04,SSW,201,6.0,14.0,21,-99.99,,,-99.99,730.809998,,2013-05-07 17:01:00,
2013-05-07 11:12:00,74.0,31.0,30.04,SSW,201,6.0,14.0,21,-99.99,,,-99.99,730.809998,,2013-05-07 17:12:00,
2013-05-07 12:32:00,75.0,31.0,30.03,SSW,206,13.0,25.0,19,-99.99,,,-99.99,937.909973,,2013-05-07 18:32:00,
2013-05-07 12:42:00,75.0,30.0,30.02,SSW,206,15.0,27.0,19,-99.99,,,-99.99,851.440002,,2013-05-07 18:42:00,
2013-05-07 12:52:00,75.0,30.0,30.02,SSW,206,15.0,27.0,19,-99.99,,,-99.99,851.440002,,2013-05-07 18:52:00,
2013-05-07 13:02:00,75.0,30.0,30.02,SSW,210,13.0,25.0,19,-99.99,,,-99.99,951.859985,,2013-05-07 19:02:00,
2013-05-07 13:11:00,75.0,30.0,30.01,SSW,195,14.0,26.0,19,-99.99,,,-99.99,963.020020,,2013-05-07 19:11:00,
2013-05-07 13:21:00,75.0,30.0,30.01,SSW,195,14.0,26.0,19,-99.99,,,-99.99,963.020020,,2013-05-07 19:21:00,
2013-05-07 13:32:00,75.0,30.0,30.00,SSW,209,14.0,25.0,18,-99.99,,,-99.99,876.549988,,2013-05-07 19:32:00,
2013-05-07 13:42:00,76.0,29.0,30.00,SSW,211,16.0,26.0,17,-99.99,,,-99.99,822.159973,,2013-05-07 19:42:00,
2013-05-07 13:52:00,76.0,29.0,30.00,SSW,211,16.0,26.0,17,-99.99,,,-99.99,822.159973,,2013-05-07 19:52:00,
2013-05-07 14:02:00,76.0,28.0,30.00,SW,215,15.0,24.0,17,-99.99,,,-99.99,821.460022,,2013-05-07 20:02:00,
2013-05-07 14:12:00,76.0,26.0,30.00,SW,217,17.0,29.0,15,-99.99,,,-99.99,866.789978,,2013-05-07 20:12:00,
2013-05-07 14:22:00,76.0,26.0,30.00,SW,217,17.0,29.0,15,-99.99,,,-99.99,866.789978,,2013-05-07 20:22:00,
2013-05-07 14:32:00,76.0,24.0,29.99,SW,214,16.0,29.0,14,-99.99,,,-99.99,860.510010,,2013-05-07 20:32:00,
2013-05-07 14:42:00,77.0,24.0,29.99,SW,215,15.0,24.0,13,-99.99,,,-99.99,854.929993,,2013-05-07 20:42:00,
2013-05-07 14:52:00,77.0,24.0,29.99,SW,215,15.0,24.0,13,-99.99,,,-99.99,854.929993,,2013-05-07 20:52:00,
2013-05-07 15:01:00,77.0,24.0,29.98,SW,220,15.0,27.0,14,-99.99,,,-99.99,797.750000,,2013-05-07 21:01:00,
2013-05-07 15:11:00,77.0,25.0,29.97,SSW,211,13.0,26.0,14,-99.99,,,-99.99,737.080017,,2013-05-07 21:11:00,
2013-05-07 15:22:00,77.0,25.0,29.97,SSW,211,13.0,26.0,14,-99.99,,,-99.99,737.080017,,2013-05-07 21:22:00,
2013-05-07 15:32:00,77.0,25.0,29.96,SW,225,13.0,22.0,14,-99.99,,,-99.99,657.590027,,2013-05-07 21:32:00,
2013-05-07 15:42:00,78.0,26.0,29.96,SW,219,11.0,19.0,14,-99.99,,,-99.99,675.719971,,2013-05-07 21:42:00,
2013-05-07 15:53:00,78.0,26.0,29.96,SW,219,11.0,19.0,14,-99.99,,,-99.99,675.719971,,2013-05-07 21:53:00,
2013-05-07 16:02:00,78.0,27.0,29.95,SSW,212,15.0,24.0,14,-99.99,,,-99.99,739.169983,,2013-05-07 22:02:00,
2013-05-07 16:13:00,79.0,27.0,29.94,WSW,238,14.0,32.0,14,-99.99,,,-99.99,717.559998,,2013-05-07 22:13:00,
2013-05-07 16:22:00,79.0,27.0,29.94,WSW,238,14.0,32.0,14,-99.99,,,-99.99,717.559998,,2013-05-07 22:22:00,
2013-05-07 16:33:00,79.0,27.0,29.93,SW,220,17.0,29.0,14,-99.99,,,-99.99,589.250000,,2013-05-07 22:33:00,
2013-05-07 16:42:00,79.0,27.0,29.93,SW,222,17.0,27.0,14,-99.99,,,-99.99,622.020020,,2013-05-07 22:42:00,
2013-05-07 16:52:00,79.0,27.0,29.93,SW,222,17.0,27.0,14,-99.99,,,-99.99,622.020020,,2013-05-07 22:52:00,
2013-05-07 17:02:00,79.0,26.0,29.93,SW,234,12.0,25.0,14,-99.99,,,-99.99,520.210022,,2013-05-07 23:02:00,
2013-05-07 17:12:00,79.0,27.0,29.92,WSW,243,14.0,25.0,14,-99.99,,,-99.99,547.409973,,2013-05-07 23:12:00,
2013-05-07 17:21:00,79.0,27.0,29.92,WSW,243,14.0,25.0,14,-99.99,,,-99.99,547.409973,,2013-05-07 23:21:00,
2013-05-07 17:32:00,79.0,26.0,29.92,WSW,244,14.0,28.0,14,-99.99,,,-99.99,468.609985,,2013-05-07 23:32:00,
2013-05-07 17:42:00,79.0,26.0,29.92,SW,235,13.0,24.0,14,-99.99,,,-99.99,261.500000,,2013-05-07 23:42:00,
2013-05-07 17:52:00,79.0,26.0,29.92,SW,235,13.0,24.0,14,-99.99,,,-99.99,261.500000,,2013-05-07 23:52:00,
2013-05-07 18:02:00,79.0,25.0,29.92,WSW,250,12.0,23.0,13,-99.99,,,-99.99,173.639999,,2013-05-08 00:02:00,
2013-05-07 18:11:00,79.0,26.0,29.91,WSW,245,12.0,20.0,14,-99.99,,,-99.99,254.529999,,2013-05-08 00:11:00,
2013-05-07 18:21:00,79.0,26.0,29.91,WSW,245,12.0,20.0,14,-99.99,,,-99.99,254.529999,,2013-05-08 00:21:00,
2013-05-07 18:32:00,79.0,25.0,29.91,WSW,252,16.0,25.0,14,-99.99,,,-99.99,211.990005,,2013-05-08 00:32:00,
2013-05-07 18:42:00,78.0,25.0,29.90,WSW,246,16.0,28.0,14,-99.99,,,-99.99,189.669998,,2013-05-08 00:42:00,
2013-05-07 18:52:00,78.0,25.0,29.90,WSW,246,16.0,28.0,14,-99.99,,,-99.99,189.669998,,2013-05-08 00:52:00,
2013-05-07 19:02:00,79.0,25.0,29.90,SW,234,14.0,21.0,13,-99.99,,,-99.99,186.190002,,2013-05-08 01:02:00,
2013-05-07 19:11:00,79.0,25.0,29.90,WSW,244,15.0,25.0,13,-99.99,,,-99.99,66.940002,,2013-05-08 01:11:00,
2013-05-07 19:21:00,79.0,25.0,29.90,WSW,244,15.0,25.0,13,-99.99,,,-99.99,66.940002,,2013-05-08 01:21:00,
2013-05-07 19:32:00,78.0,25.0,29.89,WSW,242,16.0,28.0,13,-99.99,,,-99.99,51.599998,,2013-05-08 01:32:00,
2013-05-07 19:42:00,78.0,24.0,29.89,WSW,249,15.0,25.0,13,-99.99,,,-99.99,79.500000,,2013-05-08 01:42:00,
2013-05-07 19:52:00,78.0,24.0,29.89,WSW,249,15.0,25.0,13,-99.99,,,-99.99,79.500000,,2013-05-08 01:52:00,
2013-05-07 20:01:00,77.0,24.0,29.90,WSW,246,13.0,20.0,13,-99.99,,,-99.99,47.419998,,2013-05-08 02:01:00,
2013-05-07 20:12:00,77.0,24.0,29.90,WSW,247,10.0,18.0,13,-99.99,,,-99.99,15.340000,,2013-05-08 02:12:00,
2013-05-07 20:22:00,77.0,24.0,29.90,WSW,247,10.0,18.0,13,-99.99,,,-99.99,15.340000,,2013-05-08 02:22:00,
2013-05-07 20:32:00,76.0,23.0,29.90,WSW,239,9.0,12.0,14,-99.99,,,-99.99,3.490000,,2013-05-08 02:32:00,
2013-05-07 20:42:00,74.0,23.0,29.91,WSW,244,7.0,10.0,14,-99.99,,,-99.99,0.700000,,2013-05-08 02:42:00,
2013-05-07 20:52:00,74.0,23.0,29.91,WSW,244,7.0,10.0,14,-99.99,,,-99.99,0.700000,,2013-05-08 02:52:00,
2013-05-07 21:02:00,74.0,23.0,29.91,WSW,244,7.0,10.0,14,-99.99,,,-99.99,0.700000,,2013-05-08 03:02:00,
2013-05-07 21:11:00,73.0,22.0,29.91,WSW,237,7.0,13.0,14,-99.99,,,-99.99,0.000000,,2013-05-08 03:11:00,
2013-05-07 21:21:00,73.0,22.0,29.91,WSW,237,7.0,13.0,14,-99.99,,,-99.99,0.000000,,2013-05-08 03:21:00,
2013-05-07 21:32:00,73.0,21.0,29.91,WSW,245,9.0,14.0,14,-99.99,,,-99.99,0.000000,,2013-05-08 03:32:00,
2013-05-07 21:43:00,73.0,22.0,29.91,WSW,243,9.0,16.0,14,-99.99,,,-99.99,0.000000,,2013-05-08 03:43:00,
2013-05-07 21:52:00,73.0,22.0,29.91,WSW,243,9.0,16.0,14,-99.99,,,-99.99,0.000000,,2013-05-08 03:52:00,
2013-05-07 22:02:00,72.0,22.0,29.92,WSW,244,10.0,13.0,15,-99.99,,,-99.99,0.000000,,2013-05-08 04:02:00,
2013-05-07 22:13:00,72.0,22.0,29.92,WSW,248,10.0,14.0,15,-99.99,,,-99.99,0.000000,,2013-05-08 04:13:00,
2013-05-07 22:23:00,72.0,22.0,29.92,WSW,248,10.0,14.0,15,-99.99,,,-99.99,0.000000,,2013-05-08 04:23:00,
2013-05-07 22:33:00,73.0,23.0,29.92,WSW,246,13.0,23.0,15,-99.99,,,-99.99,0.000000,,2013-05-08 04:33:00,
2013-05-07 22:43:00,74.0,23.0,29.92,WSW,245,13.0,21.0,14,-99.99,,,-99.99,0.000000,,2013-05-08 04:43:00,
2013-05-07 22:53:00,74.0,23.0,29.92,WSW,245,13.0,21.0,14,-99.99,,,-99.99,0.000000,,2013-05-08 04:53:00,
2013-05-07 23:02:00,74.0,23.0,29.92,WSW,250,13.0,22.0,15,-99.99,,,-99.99,0.000000,,2013-05-08 05:02:00,
2013-05-07 23:12:00,73.0,23.0,29.92,WSW,250,9.0,14.0,15,-99.99,,,-99.99,0.000000,,2013-05-08 05:12:00,
2013-05-07 23:22:00,73.0,23.0,29.92,WSW,250,9.0,14.0,15,-99.99,,,-99.99,0.000000,,2013-05-08 05:22:00,
2013-05-07 23:32:00,72.0,23.0,29.93,SW,233,8.0,12.0,15,-99.99,,,-99.99,0.000000,,2013-05-08 05:32:00,
2013-05-07 23:42:00,73.0,23.0,29.92,WSW,246,10.0,19.0,15,-99.99,,,-99.99,0.000000,,2013-05-08 05:42:00,
2013-05-07 23:52:00,73.0,23.0,29.92,WSW,246,10.0,19.0,15,-99.99,,,-99.99,0.000000,,2013-05-08 05:52:00,